Time;durP1;ratioP1;P1;durP2;ratioP2;P2;SDS_P1;SDS_P2;PMS_P1;PMS_P2;Temp;Humidity;BMP_temperature;BMP_pressure;BME280_temperature;BME280_humidity;BME280_pressure;Samples;Min_cycle;Max_cycle;Signal;HPM_P1;HPM_P2
2022/04/15 00:01:24;;;;;;;10.18;5.55;;;;;;;13.59;61.70;100599.66;2035694;87;34174;-57
2022/04/15 00:04:26;;;;;;;10.38;5.65;;;;;;;13.53;61.90;100590.58;2035931;87;30463;-61
2022/04/15 00:07:28;;;;;;;9.33;6.22;;;;;;;13.48;62.02;100597.58;2036144;87;27668;-59
2022/04/15 00:10:30;;;;;;;9.53;4.83;;;;;;;13.44;62.22;100596.51;2072432;85;28684;-58
2022/04/15 00:13:33;;;;;;;7.55;4.47;;;;;;;13.41;62.54;100602.06;2072117;85;32283;-59
2022/04/15 00:16:35;;;;;;;7.95;4.58;;;;;;;13.33;62.53;100614.56;2072460;85;33779;-58
2022/04/15 00:19:37;;;;;;;5.85;4.22;;;;;;;13.29;62.73;100617.92;2107451;84;30007;-58
2022/04/15 00:22:39;;;;;;;5.78;4.00;;;;;;;13.26;62.73;100611.36;2106993;84;27781;-58
2022/04/15 00:25:41;;;;;;;8.00;4.25;;;;;;;13.25;62.87;100603.35;2089745;84;29041;-58
2022/04/15 00:28:43;;;;;;;7.00;4.22;;;;;;;13.22;62.87;100604.41;2069923;85;31887;-58
2022/04/15 00:31:45;;;;;;;8.65;4.42;;;;;;;13.20;62.98;100609.00;2073779;85;34205;-59
2022/04/15 00:34:47;;;;;;;6.05;4.67;;;;;;;13.19;63.12;100603.22;2073608;85;30632;-59
2022/04/15 00:37:49;;;;;;;7.90;4.97;;;;;;;13.18;63.52;100609.09;2071746;85;27622;-58
2022/04/15 00:40:51;;;;;;;10.05;6.20;;;;;;;13.15;63.48;100603.88;2070620;85;29511;-59
2022/04/15 00:43:55;;;;;;;13.93;6.35;;;;;;;13.13;63.68;100612.51;2070292;85;31643;-59
2022/04/15 00:46:57;;;;;;;12.75;8.35;;;;;;;13.11;64.03;100622.48;2089948;84;33016;-59
2022/04/15 00:49:59;;;;;;;13.72;9.35;;;;;;;13.11;64.24;100627.01;2072035;85;30507;-58
2022/04/15 00:53:10;;;;;;;16.20;10.85;;;;;;;13.07;64.62;100624.48;2081112;85;27684;-58
2022/04/15 00:56:13;;;;;;;14.33;10.98;;;;;;;13.05;65.16;100621.49;2057480;86;29957;-60
2022/04/15 00:59:15;;;;;;;15.30;10.60;;;;;;;13.03;65.22;100617.52;2057173;86;31100;-61
2022/04/15 01:02:18;;;;;;;13.35;10.85;;;;;;;13.02;65.79;100618.47;2056892;86;32463;-58
2022/04/15 01:05:20;;;;;;;13.53;10.95;;;;;;;13.01;66.00;100623.95;2061281;85;29412;-58
2022/04/15 01:08:24;;;;;;;16.23;10.43;;;;;;;12.98;66.23;100628.14;2052056;85;27677;-58
2022/04/15 01:11:28;;;;;;;14.85;9.98;;;;;;;12.96;66.18;100624.21;2036206;87;28668;-62
2022/04/15 01:14:30;;;;;;;10.58;8.95;;;;;;;12.96;66.71;100621.52;2033184;85;31015;-60
2022/04/15 01:17:33;;;;;;;11.03;8.33;;;;;;;12.93;66.89;100625.72;2038737;86;32996;-59
2022/04/15 01:20:36;;;;;;;11.28;8.45;;;;;;;12.90;66.97;100623.19;2057501;86;29822;-58
2022/04/15 01:23:42;;;;;;;10.55;7.97;;;;;;;12.89;67.24;100625.48;2056727;85;27645;-58
2022/04/15 01:26:44;;;;;;;10.95;6.83;;;;;;;12.86;67.29;100627.88;2041234;85;28891;-59
2022/04/15 01:29:46;;;;;;;9.15;5.72;;;;;;;12.82;67.63;100624.95;2048920;85;31658;-59
2022/04/15 01:32:48;;;;;;;9.20;6.40;;;;;;;12.79;67.75;100622.42;2071156;85;34203;-58
2022/04/15 01:35:50;;;;;;;7.37;5.70;;;;;;;12.75;67.84;100607.39;2055415;86;29479;-58
2022/04/15 01:38:55;;;;;;;5.97;5.33;;;;;;;12.72;68.04;100612.97;2062896;85;27753;-58
2022/04/15 01:41:57;;;;;;;7.12;5.92;;;;;;;12.68;68.22;100606.00;2065916;85;28707;-59
2022/04/15 01:44:59;;;;;;;6.87;5.75;;;;;;;12.65;68.24;100600.33;2058309;85;31094;-58
2022/04/15 01:48:01;;;;;;;6.10;5.50;;;;;;;12.66;68.35;100614.13;2042572;85;34148;-58
2022/04/15 01:51:02;;;;;;;11.12;5.85;;;;;;;12.60;68.52;100609.11;2051931;83;29952;-60
2022/04/15 01:54:04;;;;;;;9.75;5.90;;;;;;;12.59;68.58;100616.77;2051180;86;27586;-58
2022/04/15 01:57:07;;;;;;;7.15;5.58;;;;;;;12.56;68.69;100617.81;2049652;86;30041;-58
2022/04/15 02:00:10;;;;;;;9.48;6.78;;;;;;;12.56;69.14;100617.81;2049285;86;32048;-58
2022/04/15 02:03:11;;;;;;;7.85;6.03;;;;;;;12.55;68.92;100623.25;2049167;86;32765;-62
2022/04/15 02:06:13;;;;;;;8.38;6.25;;;;;;;12.54;69.14;100631.80;2050367;86;30021;-58
2022/04/15 02:09:15;;;;;;;8.40;6.62;;;;;;;12.51;69.18;100631.08;2049766;86;27758;-62
2022/04/15 02:12:16;;;;;;;7.70;6.00;;;;;;;12.49;69.35;100628.97;2050569;86;28688;-59
2022/04/15 02:15:18;;;;;;;9.75;6.37;;;;;;;12.47;69.33;100630.37;2049909;86;32290;-58
2022/04/15 02:18:20;;;;;;;8.98;6.80;;;;;;;12.46;69.62;100628.63;2049931;86;33898;-58
2022/04/15 02:21:22;;;;;;;11.38;6.53;;;;;;;12.43;69.56;100626.98;2049660;86;29727;-58
2022/04/15 02:24:24;;;;;;;13.25;7.10;;;;;;;12.42;69.65;100626.59;2050677;86;27778;-61
2022/04/15 02:27:27;;;;;;;11.18;7.03;;;;;;;12.42;69.75;100621.67;2049769;86;29498;-58
2022/04/15 02:30:30;;;;;;;9.73;7.00;;;;;;;12.41;69.77;100614.11;2050019;86;31081;-58
2022/04/15 02:33:32;;;;;;;9.38;6.22;;;;;;;12.38;69.83;100606.69;2051108;85;33014;-60
2022/04/15 02:36:34;;;;;;;11.05;7.40;;;;;;;12.37;69.98;100600.92;2050840;86;30045;-58
2022/04/15 02:39:37;;;;;;;7.50;6.45;;;;;;;12.36;70.00;100593.80;2051228;86;27640;-58
2022/04/15 02:42:39;;;;;;;9.33;6.90;;;;;;;12.33;70.00;100585.90;2050675;86;28796;-58
2022/04/15 02:45:42;;;;;;;10.88;7.17;;;;;;;12.31;70.02;100594.05;2051210;86;31793;-60
2022/04/15 02:48:45;;;;;;;8.73;6.92;;;;;;;12.29;70.20;100591.42;2050799;86;33771;-61
2022/04/15 02:51:46;;;;;;;12.05;8.03;;;;;;;12.28;70.15;100587.00;2050851;86;29354;-58
2022/04/15 02:54:48;;;;;;;9.40;7.67;;;;;;;12.24;70.24;100588.13;2051131;86;28914;-62
2022/04/15 02:57:50;;;;;;;11.90;7.70;;;;;;;12.22;70.33;100591.38;2017519;86;28568;-72
2022/04/15 03:00:52;;;;;;;10.95;8.75;;;;;;;12.20;70.39;100598.64;2016330;87;32231;-66
2022/04/15 03:03:54;;;;;;;10.88;8.93;;;;;;;12.18;70.50;100599.64;2016062;87;34177;-61
2022/04/15 03:06:56;;;;;;;11.75;9.68;;;;;;;12.15;70.53;100600.22;2034244;86;30313;-65
2022/04/15 03:09:58;;;;;;;10.82;8.83;;;;;;;12.14;70.73;100601.62;2049177;86;27687;-68
2022/04/15 03:13:00;;;;;;;12.07;9.30;;;;;;;12.13;70.82;100598.55;2049414;86;28668;-64
2022/04/15 03:16:04;;;;;;;12.60;9.73;;;;;;;12.12;70.89;100586.06;2049656;86;31146;-70
2022/04/15 03:19:06;;;;;;;11.43;8.93;;;;;;;12.09;70.88;100585.75;2050609;86;32775;-70
2022/04/15 03:22:07;;;;;;;13.18;10.40;;;;;;;12.06;70.88;100587.25;2051006;85;29498;-68
2022/04/15 03:25:13;;;;;;;10.43;8.75;;;;;;;12.04;71.04;100589.63;2050775;86;28161;-64
2022/04/15 03:28:15;;;;;;;11.50;9.63;;;;;;;11.99;71.17;100593.90;2051047;86;29506;-74
2022/04/15 03:31:17;;;;;;;12.20;9.18;;;;;;;11.96;71.15;100599.39;2050441;86;32406;-67
2022/04/15 03:34:19;;;;;;;10.53;8.28;;;;;;;11.93;71.32;100600.88;2049210;86;33373;-67
2022/04/15 03:37:21;;;;;;;12.30;9.35;;;;;;;11.92;71.53;100603.16;2049245;86;29500;-58
2022/04/15 03:40:23;;;;;;;12.20;8.90;;;;;;;11.89;71.86;100606.88;2051078;86;27673;-58
2022/04/15 03:43:25;;;;;;;12.70;9.43;;;;;;;11.88;71.98;100606.48;2049072;86;28678;-59
2022/04/15 03:46:27;;;;;;;11.00;8.80;;;;;;;11.87;71.89;100602.06;2048565;86;31709;-59
2022/04/15 03:49:29;;;;;;;14.30;9.80;;;;;;;11.89;72.12;100607.34;2048943;86;34145;-58
2022/04/15 03:52:33;;;;;;;12.95;9.80;;;;;;;11.89;72.07;100600.63;2051725;85;30185;-67
2022/04/15 03:55:35;;;;;;;16.42;11.38;;;;;;;11.89;72.25;100604.66;2031230;86;27763;-59
2022/04/15 03:58:39;;;;;;;14.38;11.90;;;;;;;11.90;72.21;100592.97;2063784;86;29659;-65
2022/04/15 04:01:42;;;;;;;14.25;12.30;;;;;;;11.90;72.32;100605.94;2076168;85;31054;-59
2022/04/15 04:04:44;;;;;;;17.48;13.65;;;;;;;11.91;72.48;100595.59;2069811;85;32967;-58
2022/04/15 04:07:46;;;;;;;17.65;13.40;;;;;;;11.91;72.54;100598.28;2090994;85;29652;-67
2022/04/15 04:10:48;;;;;;;15.20;13.60;;;;;;;11.91;72.56;100601.42;2074572;85;28290;-58
2022/04/15 04:13:50;;;;;;;18.75;13.28;;;;;;;11.89;72.38;100601.97;2035233;87;30172;-58
2022/04/15 04:16:52;;;;;;;19.02;14.38;;;;;;;11.86;72.34;100597.64;2036289;87;32239;-66
2022/04/15 04:19:55;;;;;;;16.37;13.75;;;;;;;11.84;72.40;100595.01;2073749;85;33943;-58
2022/04/15 04:22:57;;;;;;;20.10;13.70;;;;;;;11.84;72.59;100596.34;2073844;85;30297;-60
2022/04/15 04:25:59;;;;;;;18.10;13.28;;;;;;;11.75;72.51;100574.02;2072264;85;27681;-59
2022/04/15 04:29:01;;;;;;;19.55;14.23;;;;;;;11.84;72.50;100593.66;2072121;85;30127;-58
2022/04/15 04:32:03;;;;;;;15.40;13.20;;;;;;;11.84;72.52;100592.33;2072508;85;32172;-60
2022/04/15 04:35:06;;;;;;;18.10;12.88;;;;;;;11.83;72.33;100591.92;2078056;84;34159;-59
2022/04/15 04:38:08;;;;;;;22.90;15.63;;;;;;;11.79;72.20;100589.02;2089869;84;29339;-58
2022/04/15 04:41:10;;;;;;;20.20;14.93;;;;;;;11.76;72.15;100600.36;2085046;84;28300;-58
2022/04/15 04:44:12;;;;;;;18.25;14.53;;;;;;;11.70;72.24;100605.11;2069982;86;29990;-62
2022/04/15 04:47:14;;;;;;;21.07;15.30;;;;;;;11.65;72.19;100603.61;2073590;85;30948;-58
2022/04/15 04:50:17;;;;;;;21.60;16.25;;;;;;;11.61;72.40;100602.01;2072976;85;33747;-58
2022/04/15 04:53:19;;;;;;;21.45;16.73;;;;;;;11.63;72.66;100616.23;2076596;85;30742;-61
2022/04/15 04:56:21;;;;;;;23.35;17.98;;;;;;;11.64;72.91;100615.28;2057860;86;28312;-58
2022/04/15 04:59:25;;;;;;;26.48;18.20;;;;;;;11.68;73.12;100618.19;2052032;85;29377;-58
2022/04/15 05:02:27;;;;;;;23.98;18.85;;;;;;;11.72;73.14;100629.18;2046996;86;31895;-63
2022/04/15 05:05:29;;;;;;;28.83;18.98;;;;;;;11.77;73.18;100624.92;2051814;85;34380;-66
2022/04/15 05:08:33;;;;;;;22.80;18.95;;;;;;;11.83;73.24;100632.19;2071689;85;30668;-61
2022/04/15 05:11:35;;;;;;;25.77;19.67;;;;;;;11.89;73.32;100636.41;2058368;85;27641;-58
2022/04/15 05:14:38;;;;;;;25.30;19.48;;;;;;;11.98;73.24;100648.05;2052214;85;28583;-59
2022/04/15 05:17:40;;;;;;;23.85;18.67;;;;;;;12.10;73.33;100642.55;2047885;85;31974;-57
2022/04/15 05:20:42;;;;;;;24.60;18.27;;;;;;;12.27;73.39;100642.16;2071305;85;33822;-57
2022/04/15 05:23:47;;;;;;;22.80;19.00;;;;;;;12.42;73.18;100641.83;2057771;86;30507;-58
2022/04/15 05:26:49;;;;;;;23.40;18.37;;;;;;;12.60;73.28;100643.55;2068196;85;28164;-58
2022/04/15 05:29:51;;;;;;;23.27;16.95;;;;;;;12.79;73.11;100646.61;2056216;85;29286;-60
2022/04/15 05:32:53;;;;;;;18.52;15.53;;;;;;;12.96;72.58;100650.22;2036229;87;31721;-59
2022/04/15 05:35:56;;;;;;;20.25;14.63;;;;;;;13.00;72.22;100647.77;2035935;87;32910;-59
2022/04/15 05:38:58;;;;;;;16.27;14.55;;;;;;;13.01;71.92;100652.19;2063598;85;30032;-58
2022/04/15 05:42:01;;;;;;;18.12;15.35;;;;;;;13.03;71.82;100650.29;2056669;85;27684;-60
2022/04/15 05:45:04;;;;;;;19.60;15.03;;;;;;;13.04;71.73;100656.06;2040647;85;29372;-66
2022/04/15 05:48:07;;;;;;;17.85;14.38;;;;;;;13.12;71.76;100655.64;2072000;85;31050;-59
2022/04/15 05:51:08;;;;;;;16.67;14.95;;;;;;;13.22;71.51;100655.06;2057943;85;33786;-58
2022/04/15 05:54:10;;;;;;;17.17;14.05;;;;;;;13.34;71.46;100662.05;2067743;85;30521;-63
2022/04/15 05:57:13;;;;;;;15.40;13.80;;;;;;;13.40;71.23;100660.41;2087546;85;28304;-59
2022/04/15 06:00:16;;;;;;;16.15;14.43;;;;;;;13.47;71.19;100664.97;2036171;87;29373;-59
2022/04/15 06:03:20;;;;;;;15.70;13.55;;;;;;;13.54;70.98;100662.80;2056247;86;31913;-59
2022/04/15 06:06:22;;;;;;;21.15;15.65;;;;;;;13.62;71.00;100661.88;2068071;86;32944;-61
2022/04/15 06:09:23;;;;;;;16.70;14.75;;;;;;;13.87;71.12;100659.99;2068002;86;29226;-59
2022/04/15 06:15:59;;;;;;;17.00;14.00;;;;;;;15.14;70.79;100659.15;2040298;87;29475;-58
2022/04/15 06:19:01;;;;;;;20.48;14.63;;;;;;;15.56;69.33;100653.80;2093233;84;31486;-59
2022/04/15 06:22:04;;;;;;;17.50;14.07;;;;;;;15.61;68.63;100660.27;2105128;84;34205;-60
2022/04/15 06:25:07;;;;;;;18.15;13.38;;;;;;;15.55;68.11;100661.55;2077916;84;30156;-61
2022/04/15 06:28:09;;;;;;;16.52;13.68;;;;;;;15.44;67.78;100667.63;2107204;84;27743;-60
2022/04/15 06:31:11;;;;;;;18.00;13.93;;;;;;;15.29;67.61;100668.12;2106293;84;28495;-59
2022/04/15 06:34:14;;;;;;;16.40;14.50;;;;;;;15.19;67.53;100666.48;2103318;84;31597;-64
2022/04/15 06:37:15;;;;;;;16.23;14.43;;;;;;;15.16;67.60;100675.27;2086500;84;33852;-60
2022/04/15 06:40:17;;;;;;;20.17;16.05;;;;;;;15.12;67.40;100670.55;2070210;86;29775;-59
2022/04/15 06:43:19;;;;;;;20.80;16.15;;;;;;;15.04;67.29;100679.59;2071271;85;27984;-63
2022/04/15 06:46:21;;;;;;;18.52;16.40;;;;;;;14.98;67.35;100676.80;2072418;85;29605;-60
2022/04/15 06:49:22;;;;;;;21.62;17.15;;;;;;;14.96;67.20;100676.52;2072159;85;31478;-59
2022/04/15 06:52:24;;;;;;;22.02;17.57;;;;;;;14.97;67.30;100678.26;2072159;85;34266;-59
2022/04/15 06:55:26;;;;;;;21.20;16.65;;;;;;;14.96;67.10;100677.37;2071893;85;29461;-59
2022/04/15 06:58:30;;;;;;;20.62;15.98;;;;;;;14.93;66.95;100671.31;2072183;85;28159;-62
2022/04/15 07:01:35;;;;;;;21.10;17.12;;;;;;;14.96;67.28;100677.87;2072312;85;29522;-59
2022/04/15 07:04:35;;;;;;;20.43;15.78;;;;;;;15.06;67.12;100671.42;2072074;85;31302;-60
2022/04/15 07:07:38;;;;;;;24.63;16.90;;;;;;;15.58;67.14;100661.81;2094403;85;33616;-66
2022/04/15 07:10:40;;;;;;;18.80;16.52;;;;;;;16.12;67.29;100638.52;2055720;86;29746;-62
2022/04/15 07:13:42;;;;;;;22.50;18.10;;;;;;;16.12;67.29;100638.52;2053833;86;27682;-58
2022/04/15 07:16:49;;;;;;;20.30;16.80;;;;;;;16.71;66.21;100662.42;2054106;86;28640;-59
2022/04/15 07:19:57;;;;;;;21.82;18.23;;;;;;;16.76;65.22;100656.69;2054259;86;31090;-67
2022/04/15 07:23:01;;;;;;;22.62;17.87;;;;;;;16.75;64.95;100661.72;2021631;86;32726;-60
2022/04/15 07:26:11;;;;;;;20.57;17.60;;;;;;;16.75;64.49;100658.51;2021168;87;29302;-59
2022/04/15 07:29:18;;;;;;;25.15;18.77;;;;;;;16.85;64.41;100666.38;2027852;86;27750;-60
2022/04/15 07:32:29;;;;;;;22.62;17.82;;;;;;;16.98;63.79;100669.59;2032471;86;29847;-61
2022/04/15 07:35:32;;;;;;;23.00;19.25;;;;;;;17.03;63.89;100670.14;2055818;86;31021;-60
2022/04/15 07:38:34;;;;;;;21.65;17.20;;;;;;;17.06;63.56;100672.61;2055606;86;33663;-59
2022/04/15 07:41:38;;;;;;;19.15;17.15;;;;;;;17.48;63.74;100669.62;2054824;86;30519;-62
2022/04/15 07:44:40;;;;;;;20.25;17.30;;;;;;;17.68;62.85;100672.72;2055656;86;27740;-61
2022/04/15 07:47:43;;;;;;;24.95;16.62;;;;;;;17.72;62.59;100673.73;2056339;86;29659;-60
2022/04/15 07:50:45;;;;;;;20.20;16.02;;;;;;;17.91;62.20;100675.96;2056084;86;31709;-59
2022/04/15 07:53:47;;;;;;;18.70;16.25;;;;;;;18.02;61.61;100672.48;2046130;86;32976;-60
2022/04/15 07:56:49;;;;;;;16.80;15.00;;;;;;;17.98;61.36;100672.33;2046973;85;30019;-63
2022/04/15 07:59:51;;;;;;;16.57;14.83;;;;;;;17.94;61.23;100677.56;2091986;85;27623;-58
2022/04/15 08:02:53;;;;;;;18.85;16.67;;;;;;;17.88;61.09;100675.30;2074321;85;29345;-58
2022/04/15 08:05:56;;;;;;;19.90;16.37;;;;;;;17.75;60.62;100669.95;2067237;86;32249;-59
2022/04/15 08:09:00;;;;;;;20.30;16.52;;;;;;;17.70;60.62;100670.77;2067611;86;34350;-59
2022/04/15 08:12:02;;;;;;;18.95;15.93;;;;;;;17.82;60.73;100662.22;2036289;87;29499;-59
2022/04/15 08:15:05;;;;;;;17.70;15.90;;;;;;;18.18;60.66;100659.97;2100675;84;27670;-61
2022/04/15 08:18:15;;;;;;;16.97;15.18;;;;;;;18.66;60.39;100667.16;2107210;84;28718;-59
2022/04/15 08:21:31;;;;;;;17.67;15.55;;;;;;;18.98;59.61;100675.13;2075113;84;32283;-58
2022/04/15 08:24:48;;;;;;;20.23;16.15;;;;;;;18.97;58.97;100680.19;2072321;85;33606;-60
2022/04/15 08:27:54;;;;;;;18.45;15.98;;;;;;;18.88;58.37;100679.53;2038849;87;29440;-59
2022/04/15 08:31:02;;;;;;;18.05;16.23;;;;;;;18.87;58.59;100669.66;2064515;84;27725;-66
2022/04/15 08:34:10;;;;;;;18.95;14.53;;;;;;;18.91;58.44;100671.16;2088910;84;28243;-65
2022/04/15 08:37:23;;;;;;;17.48;15.45;;;;;;;19.20;57.92;100663.41;2108013;84;31071;-60
2022/04/15 08:40:38;;;;;;;16.15;14.10;;;;;;;19.13;57.26;100664.91;2107421;84;32826;-58
2022/04/15 08:43:42;;;;;;;16.87;14.70;;;;;;;19.03;57.38;100663.42;2063178;85;29335;-61
2022/04/15 08:46:44;;;;;;;17.60;15.75;;;;;;;18.88;56.82;100676.83;2070733;86;27625;-63
2022/04/15 08:49:48;;;;;;;17.73;15.60;;;;;;;18.55;56.60;100666.27;2083940;84;29043;-60
2022/04/15 08:52:54;;;;;;;21.20;16.75;;;;;;;18.20;56.63;100681.05;2074452;84;31408;-66
2022/04/15 08:55:57;;;;;;;23.85;17.37;;;;;;;17.87;57.07;100682.58;2086921;84;33002;-63
2022/04/15 08:58:59;;;;;;;20.60;18.12;;;;;;;17.53;57.65;100685.56;2089332;84;30014;-61
2022/04/15 09:02:01;;;;;;;22.95;18.70;;;;;;;17.20;58.15;100682.97;2087127;84;27671;-61
2022/04/15 09:05:05;;;;;;;20.43;18.23;;;;;;;16.86;58.80;100689.76;2060578;84;29269;-61
2022/04/15 09:08:11;;;;;;;28.75;20.45;;;;;;;16.61;59.32;100696.48;2089112;84;31106;-61
2022/04/15 09:11:14;;;;;;;23.55;19.40;;;;;;;16.35;59.86;100697.28;2083306;84;33109;-65
2022/04/15 09:14:16;;;;;;;21.33;17.87;;;;;;;16.05;60.30;100710.54;2090155;84;30113;-62
2022/04/15 09:17:24;;;;;;;18.40;13.10;;;;;;;15.77;60.89;100706.05;2089220;84;27764;-63
2022/04/15 09:20:36;;;;;;;22.85;15.70;;;;;;;15.49;60.81;100705.98;2088074;84;28723;-66
2022/04/15 09:23:36;;;;;;;23.22;15.65;;;;;;;15.29;61.12;100713.16;2088753;84;31867;-64
2022/04/15 09:26:40;;;;;;;17.70;14.40;;;;;;;15.11;61.63;100713.34;2089487;84;32990;-64
2022/04/15 09:29:41;;;;;;;19.15;16.00;;;;;;;15.00;61.81;100713.11;2086156;84;28746;-65
2022/04/15 09:32:44;;;;;;;21.75;15.35;;;;;;;14.97;62.43;100705.23;2089809;84;27777;-62
2022/04/15 09:35:46;;;;;;;18.10;13.20;;;;;;;14.95;62.55;100708.02;2090282;84;29235;-62
2022/04/15 09:38:49;;;;;;;17.15;13.38;;;;;;;14.96;62.61;100701.66;2091154;84;31136;-66
2022/04/15 09:41:56;;;;;;;12.60;10.10;;;;;;;14.96;62.65;100704.35;2090917;84;34181;-67
2022/04/15 09:45:14;;;;;;;7.87;7.10;;;;;;;14.95;62.76;100711.20;2089010;84;29534;-71
2022/04/15 09:48:16;;;;;;;8.40;6.28;;;;;;;14.92;62.79;100712.73;2087860;84;27649;-62
2022/04/15 09:51:21;;;;;;;12.07;5.40;;;;;;;14.92;62.70;100711.39;2091613;84;29515;-61
2022/04/15 09:54:28;;;;;;;8.20;5.65;;;;;;;14.92;62.88;100718.13;2083899;84;31834;-63
2022/04/15 09:57:34;;;;;;;10.13;5.78;;;;;;;14.93;62.91;100719.87;2063766;86;33098;-64
2022/04/15 10:00:36;;;;;;;8.15;6.62;;;;;;;15.05;63.23;100712.36;2064448;86;29188;-61
2022/04/15 10:03:40;;;;;;;9.95;7.37;;;;;;;15.05;63.23;100712.36;2065247;86;27676;-60
2022/04/15 10:06:43;;;;;;;10.93;9.43;;;;;;;14.99;63.09;100713.61;2075039;84;28654;-62
2022/04/15 10:09:46;;;;;;;12.00;9.70;;;;;;;14.99;63.09;100713.61;2086090;84;31590;-59
2022/04/15 10:12:48;;;;;;;15.58;11.22;;;;;;;14.98;63.24;100715.03;2106809;84;32987;-61
2022/04/15 10:15:51;;;;;;;13.15;9.68;;;;;;;14.99;63.21;100709.56;2109474;84;30698;-61
2022/04/15 10:18:53;;;;;;;13.55;9.50;;;;;;;15.09;63.49;100719.31;2110172;84;27752;-59
2022/04/15 10:21:55;;;;;;;12.78;9.60;;;;;;;15.23;63.42;100694.14;2109864;84;29555;-60
2022/04/15 10:24:58;;;;;;;12.55;10.00;;;;;;;15.23;63.42;100694.14;2109256;84;32200;-60
2022/04/15 10:28:13;;;;;;;14.03;10.35;;;;;;;15.47;63.58;100716.01;2110182;84;34127;-59
2022/04/15 10:31:16;;;;;;;;;;;;;;;15.48;63.43;100719.59;2080550;84;29405;-61
2022/04/15 10:34:21;;;;;;;14.20;12.30;;;;;;;15.38;63.17;100722.01;2087032;84;27700;-61
2022/04/15 10:37:47;;;;;;;16.20;12.70;;;;;;;15.22;63.19;100719.42;2071259;85;29562;-63
2022/04/15 10:40:50;;;;;;;18.45;12.95;;;;;;;15.12;63.31;100718.23;1994590;88;31226;-61
2022/04/15 10:43:58;;;;;;;16.95;13.55;;;;;;;14.87;63.47;100715.23;1994938;89;33085;-60
2022/04/15 10:47:22;;;;;;;17.73;13.45;;;;;;;14.84;63.73;100718.11;1997282;87;28301;-61
2022/04/15 10:50:28;;;;;;;17.00;14.00;;;;;;;14.79;63.84;100725.63;1982688;89;27878;-61
2022/04/15 10:53:31;;;;;;;14.30;12.37;;;;;;;14.80;63.97;100720.62;1995409;87;28719;-60
2022/04/15 10:56:38;;;;;;;17.82;13.25;;;;;;;14.91;64.39;100712.34;1994075;89;32217;-60
2022/04/15 11:03:32;;;;;;;14.93;11.03;;;;;;;15.22;64.16;100718.53;2002671;87;30608;-69
2022/04/15 11:06:32;;;;;;;16.17;12.33;;;;;;;15.43;63.89;100724.41;1951391;89;28373;-73
2022/04/15 11:09:35;;;;;;;14.28;10.10;;;;;;;15.43;63.89;100724.41;1939187;89;29940;-68
2022/04/15 11:12:45;;;;;;;12.15;7.65;;;;;;;15.67;63.48;100722.47;1999319;88;31173;-61
2022/04/15 11:16:13;;;;;;;11.50;8.90;;;;;;;15.88;62.53;100721.59;2071829;85;33036;-74
2022/04/15 11:19:24;;;;;;;11.95;9.30;;;;;;;16.06;62.42;100724.44;2098467;84;30475;-60
2022/04/15 11:22:26;;;;;;;11.38;8.33;;;;;;;16.12;61.83;100702.89;2084914;84;27704;-60
2022/04/15 11:25:28;;;;;;;10.53;7.85;;;;;;;16.42;60.68;100713.95;2071280;85;29891;-64
2022/04/15 11:28:30;;;;;;;8.33;4.97;;;;;;;16.42;60.68;100713.95;2071712;85;32395;-60
2022/04/15 11:31:36;;;;;;;7.78;4.83;;;;;;;16.53;60.15;100716.82;2072916;85;33737;-64
2022/04/15 11:34:38;;;;;;;4.75;3.47;;;;;;;16.67;59.42;100707.74;2073359;85;30104;-61
2022/04/15 11:37:53;;;;;;;3.72;3.33;;;;;;;16.83;59.01;100712.97;2084584;84;27702;-71
2022/04/15 11:41:00;;;;;;;3.95;3.58;;;;;;;17.05;58.74;100717.39;2105122;84;28719;-68
2022/04/15 11:44:12;;;;;;;5.12;3.67;;;;;;;17.14;57.52;100717.61;2045353;85;31266;-60
2022/04/15 11:47:34;;;;;;;7.22;3.90;;;;;;;17.27;57.33;100712.67;2087249;84;30911;-62
2022/04/15 11:50:38;;;;;;;4.30;3.90;;;;;;;17.29;56.92;100710.22;2093437;84;27662;-61
2022/04/15 11:53:40;;;;;;;5.33;3.05;;;;;;;17.31;56.68;100712.34;2069096;84;27757;-64
2022/04/15 11:56:45;;;;;;;5.35;3.50;;;;;;;17.36;56.76;100714.73;2070234;85;29966;-73
2022/04/15 11:59:49;;;;;;;3.60;3.30;;;;;;;17.25;55.84;100701.08;2070746;85;32677;-76
2022/04/15 12:03:02;;;;;;;3.55;3.12;;;;;;;17.07;55.16;100713.59;2070921;85;34085;-62
2022/04/15 12:06:06;;;;;;;4.15;3.25;;;;;;;16.89;55.10;100713.03;2045121;85;29263;-64
2022/04/15 12:09:13;;;;;;;5.35;4.10;;;;;;;16.75;55.36;100726.65;2044487;85;27755;-60
2022/04/15 12:12:15;;;;;;;5.60;4.40;;;;;;;16.54;54.97;100718.56;2071690;85;29583;-61
2022/04/15 12:15:28;;;;;;;8.20;5.90;;;;;;;16.35;55.14;100727.03;2071980;85;31161;-60
2022/04/15 12:18:30;;;;;;;9.03;6.08;;;;;;;16.26;54.98;100727.66;2089520;84;32981;-65
2022/04/15 12:21:34;;;;;;;11.15;7.90;;;;;;;16.16;54.70;100731.45;2081784;84;28799;-64
2022/04/15 12:24:37;;;;;;;9.07;7.40;;;;;;;16.06;55.17;100732.55;2107782;84;27618;-63
2022/04/15 12:27:40;;;;;;;8.13;6.62;;;;;;;16.07;55.40;100738.34;2106911;83;30063;-61
2022/04/15 12:30:44;;;;;;;10.70;6.40;;;;;;;16.10;54.99;100730.50;2106050;84;31192;-60
2022/04/15 12:33:48;;;;;;;9.25;7.35;;;;;;;16.25;55.64;100734.03;2095184;84;32984;-61
2022/04/15 12:36:51;;;;;;;10.23;6.35;;;;;;;16.35;55.02;100731.58;2073745;84;30481;-67
2022/04/15 12:39:53;;;;;;;9.05;7.00;;;;;;;16.43;54.71;100736.48;2092391;84;27605;-61
2022/04/15 12:42:56;;;;;;;9.63;7.20;;;;;;;16.51;54.33;100734.98;2098371;84;29560;-61
2022/04/15 12:45:58;;;;;;;8.63;7.72;;;;;;;16.53;54.28;100741.63;2107359;84;31873;-68
2022/04/15 12:49:00;;;;;;;9.45;8.48;;;;;;;16.50;54.07;100739.13;2103283;84;33411;-63
2022/04/15 12:52:17;;;;;;;10.28;9.15;;;;;;;16.43;53.96;100745.44;2073995;85;30031;-61
2022/04/15 12:55:31;;;;;;;11.12;9.95;;;;;;;15.99;53.85;100750.12;2088557;84;27789;-61
2022/04/15 12:58:33;;;;;;;11.83;9.98;;;;;;;15.99;53.85;100750.12;2094457;84;28773;-61
2022/04/15 13:01:35;;;;;;;11.38;9.50;;;;;;;15.63;54.12;100749.67;2107089;84;32349;-63
2022/04/15 13:04:37;;;;;;;12.13;8.73;;;;;;;15.13;54.54;100728.95;2078030;84;33387;-65
2022/04/15 13:07:39;;;;;;;12.47;9.53;;;;;;;15.10;54.79;100764.69;2070353;85;30545;-63
2022/04/15 13:10:47;;;;;;;12.47;10.25;;;;;;;14.88;55.13;100768.72;2072843;85;27689;-74
2022/04/15 13:13:49;;;;;;;13.65;10.55;;;;;;;14.67;55.53;100750.13;2086941;84;28808;-61
2022/04/15 13:16:51;;;;;;;46.05;36.28;;;;;;;14.78;55.90;100771.09;2081836;84;32286;-60
2022/04/15 13:19:54;;;;;;;10.58;8.50;;;;;;;14.71;55.87;100769.25;2107106;84;34200;-61
2022/04/15 13:22:56;;;;;;;9.43;7.92;;;;;;;14.73;55.92;100779.44;2107059;84;30124;-64
2022/04/15 13:25:58;;;;;;;8.20;7.40;;;;;;;14.74;55.97;100778.47;2105922;84;27787;-61
2022/04/15 13:29:00;;;;;;;10.53;7.20;;;;;;;14.71;55.85;100780.03;2103291;84;30089;-60
2022/04/15 13:32:04;;;;;;;11.22;7.70;;;;;;;14.74;56.23;100778.47;2073835;85;32247;-61
2022/04/15 13:35:07;;;;;;;10.63;8.90;;;;;;;14.80;56.18;100775.92;2098964;84;33218;-61
2022/04/15 13:38:09;;;;;;;9.50;8.60;;;;;;;14.94;55.96;100768.32;2072111;85;30473;-63
2022/04/15 13:41:14;;;;;;;11.75;8.30;;;;;;;14.94;55.96;100768.32;2078749;84;27705;-60
2022/04/15 13:44:15;;;;;;;8.70;7.20;;;;;;;15.00;56.29;100772.02;2107720;84;28656;-61
2022/04/15 13:47:17;;;;;;;9.68;7.72;;;;;;;14.99;56.22;100772.97;2078321;84;31678;-60
2022/04/15 13:50:20;;;;;;;10.80;8.45;;;;;;;14.91;56.24;100772.55;2074045;84;33118;-60
2022/04/15 13:56:42;;;;;;;7.42;3.77;;;;;;;14.86;56.30;100771.98;2041454;84;27634;-60
2022/04/15 13:59:44;;;;;;;6.45;4.08;;;;;;;14.86;55.87;100772.83;2096139;84;29975;-59
2022/04/15 14:02:46;;;;;;;9.03;4.42;;;;;;;14.84;55.68;100770.70;2096200;83;32396;-60
2022/04/15 14:05:48;;;;;;;5.95;4.53;;;;;;;14.89;55.95;100774.00;2057206;86;33894;-69
2022/04/15 14:08:51;;;;;;;6.08;4.22;;;;;;;14.91;55.92;100770.34;2057757;86;29921;-60
2022/04/15 14:11:53;;;;;;;6.45;5.55;;;;;;;14.89;55.64;100783.94;2057942;86;27708;-61
2022/04/15 14:14:59;;;;;;;5.55;4.30;;;;;;;14.84;55.65;100781.49;2057347;86;29535;-60